createdAt,value
2018-10-06T00:00:37.924Z,11.73
2018-10-06T00:03:06.127Z,11.13
2018-10-06T00:05:34.280Z,10.37
2018-10-06T00:08:02.484Z,9.50
2018-10-06T00:10:30.581Z,9.03
2018-10-06T00:12:58.799Z,9.67
2018-10-06T00:15:26.947Z,8.47
2018-10-06T00:17:55.118Z,10.00
2018-10-06T00:20:23.332Z,8.77
2018-10-06T00:22:51.449Z,9.83
2018-10-06T00:25:19.652Z,8.17
2018-10-06T00:27:47.778Z,11.07
2018-10-06T00:30:15.991Z,12.43
2018-10-06T00:32:44.856Z,11.27
2018-10-06T00:35:13.096Z,9.83
2018-10-06T00:37:41.986Z,10.13
2018-10-06T00:40:10.165Z,11.07
2018-10-06T00:42:38.408Z,8.60
2018-10-06T00:45:06.559Z,13.30
2018-10-06T00:47:34.677Z,12.57
2018-10-06T00:50:02.818Z,9.30
2018-10-06T00:52:31.063Z,12.77
2018-10-06T00:54:59.212Z,13.10
2018-10-06T00:57:27.606Z,11.87
2018-10-06T00:59:55.717Z,10.70
2018-10-06T01:02:23.860Z,11.27
2018-10-06T01:04:52.052Z,8.43
2018-10-06T01:07:20.296Z,12.63
2018-10-06T01:09:48.414Z,9.47
2018-10-06T01:12:16.582Z,10.13
2018-10-06T01:14:44.729Z,10.17
2018-10-06T01:17:12.981Z,12.60
2018-10-06T01:19:41.673Z,13.03
2018-10-06T01:22:09.850Z,10.73
2018-10-06T01:24:38.075Z,11.17
2018-10-06T01:27:06.670Z,11.97
2018-10-06T01:29:34.866Z,11.33
2018-10-06T01:32:04.516Z,9.10
2018-10-06T01:34:32.986Z,10.80
2018-10-06T01:37:01.209Z,10.37
2018-10-06T01:39:29.742Z,10.97
2018-10-06T01:41:57.946Z,12.20
2018-10-06T01:44:26.169Z,9.60
2018-10-06T01:46:54.324Z,8.40
2018-10-06T01:49:22.541Z,9.90
2018-10-06T01:51:50.968Z,10.23
2018-10-06T01:54:19.134Z,9.00
2018-10-06T01:56:47.212Z,9.97
2018-10-06T01:59:15.538Z,10.27
2018-10-06T02:01:43.722Z,13.60
2018-10-06T02:04:11.945Z,13.30
2018-10-06T02:06:40.150Z,11.70
2018-10-06T02:09:08.342Z,11.17
2018-10-06T02:11:36.483Z,14.07
2018-10-06T02:14:04.763Z,12.93
2018-10-06T02:16:32.911Z,12.90
2018-10-06T02:19:01.106Z,11.23
2018-10-06T02:21:29.252Z,10.47
2018-10-06T02:23:57.406Z,9.33
2018-10-06T02:26:25.545Z,11.27
2018-10-06T02:28:53.692Z,13.70
2018-10-06T02:31:21.829Z,12.50
2018-10-06T02:33:49.958Z,9.83
2018-10-06T02:36:18.171Z,11.43
2018-10-06T02:38:46.357Z,11.80
2018-10-06T02:41:14.486Z,12.30
2018-10-06T02:43:42.693Z,14.30
2018-10-06T02:46:10.860Z,10.33
2018-10-06T02:48:39.022Z,14.87
2018-10-06T02:51:07.165Z,13.97
2018-10-06T02:53:35.344Z,11.97
2018-10-06T02:56:03.478Z,14.47
2018-10-06T02:58:31.639Z,17.47
2018-10-06T03:00:59.784Z,12.23
2018-10-06T03:03:27.979Z,13.60
2018-10-06T03:05:56.102Z,14.13
2018-10-06T03:08:24.219Z,12.33
2018-10-06T03:10:52.376Z,12.83
2018-10-06T03:13:20.495Z,11.13
2018-10-06T03:15:48.649Z,14.07
2018-10-06T03:18:16.795Z,13.73
2018-10-06T03:20:44.954Z,11.03
2018-10-06T03:23:13.077Z,14.10
2018-10-06T03:25:41.209Z,15.53
2018-10-06T03:28:09.340Z,13.97
2018-10-06T03:30:37.578Z,14.10
2018-10-06T03:33:05.801Z,15.67
2018-10-06T03:35:34.008Z,14.40
2018-10-06T03:38:02.229Z,15.03
2018-10-06T03:40:30.430Z,14.93
2018-10-06T03:42:58.559Z,16.63
2018-10-06T03:45:26.805Z,12.93
2018-10-06T03:47:55.048Z,13.00
2018-10-06T03:50:23.201Z,15.47
2018-10-06T03:52:51.597Z,11.57
2018-10-06T03:55:19.729Z,12.93
2018-10-06T03:57:47.821Z,11.67
2018-10-06T04:00:16.012Z,14.17
2018-10-06T04:02:44.133Z,16.33
2018-10-06T04:05:12.273Z,12.53
2018-10-06T04:07:40.487Z,13.63
2018-10-06T04:10:08.673Z,12.77
2018-10-06T04:12:37.409Z,13.03
2018-10-06T04:15:06.022Z,13.53
2018-10-06T04:17:34.199Z,12.53
2018-10-06T04:20:02.411Z,12.03
2018-10-06T04:22:30.654Z,11.87
2018-10-06T04:24:58.877Z,14.10
2018-10-06T04:27:27.092Z,19.67
2018-10-06T04:29:55.258Z,14.30
2018-10-06T04:32:23.437Z,13.80
2018-10-06T04:34:51.675Z,14.20
2018-10-06T04:37:19.899Z,19.67
2018-10-06T04:39:48.155Z,14.43
2018-10-06T04:42:16.363Z,14.03
2018-10-06T04:44:44.549Z,14.17
2018-10-06T04:47:12.749Z,11.17
2018-10-06T04:49:41.773Z,12.47
2018-10-06T04:52:09.911Z,12.07
2018-10-06T04:54:38.072Z,13.77
2018-10-06T04:57:06.258Z,13.43
2018-10-06T04:59:34.496Z,12.93
2018-10-06T05:02:02.740Z,13.67
2018-10-06T05:04:31.008Z,13.07
2018-10-06T05:06:59.233Z,12.40
2018-10-06T05:09:27.506Z,13.07
2018-10-06T05:11:55.748Z,11.60
2018-10-06T05:14:23.999Z,11.83
2018-10-06T05:16:52.134Z,14.50
2018-10-06T05:19:20.341Z,13.73
2018-10-06T05:21:48.534Z,9.83
2018-10-06T05:24:16.817Z,12.97
2018-10-06T05:26:45.339Z,16.80
2018-10-06T05:29:13.528Z,12.10
2018-10-06T05:31:41.724Z,13.50
2018-10-06T05:34:10.262Z,12.43
2018-10-06T05:36:38.396Z,15.40
2018-10-06T05:39:07.373Z,14.47
2018-10-06T05:41:35.603Z,10.93
2018-10-06T05:44:04.197Z,12.47
2018-10-06T05:46:32.650Z,14.57
2018-10-06T05:49:00.800Z,13.83
2018-10-06T05:51:29.041Z,14.20
2018-10-06T05:53:57.611Z,12.37
2018-10-06T05:56:25.947Z,13.00
2018-10-06T05:58:54.165Z,11.73
2018-10-06T06:01:22.383Z,11.00
2018-10-06T06:03:50.590Z,10.53
2018-10-06T06:06:18.906Z,10.63
2018-10-06T06:08:47.116Z,14.37
2018-10-06T06:11:15.378Z,9.47
2018-10-06T06:13:43.568Z,10.10
2018-10-06T06:16:11.744Z,9.80
2018-10-06T06:18:40.018Z,9.50
2018-10-06T06:21:08.200Z,12.37
2018-10-06T06:23:36.400Z,10.00
2018-10-06T06:26:04.571Z,10.70
2018-10-06T06:28:32.791Z,15.43
2018-10-06T06:31:01.059Z,11.70
2018-10-06T06:33:29.273Z,10.53
2018-10-06T06:35:57.423Z,11.33
2018-10-06T06:38:25.673Z,12.73
2018-10-06T06:40:53.811Z,13.67
2018-10-06T06:43:21.950Z,10.77
2018-10-06T06:45:50.111Z,11.70
2018-10-06T06:48:18.213Z,16.27
2018-10-06T06:50:46.339Z,12.57
2018-10-06T06:53:14.427Z,11.17
2018-10-06T06:55:42.636Z,14.40
2018-10-06T06:58:10.799Z,11.87
2018-10-06T07:00:39.053Z,9.90
2018-10-06T07:03:07.251Z,10.40
2018-10-06T07:05:35.415Z,12.47
2018-10-06T07:08:03.657Z,10.30
2018-10-06T07:10:31.841Z,11.97
2018-10-06T07:13:00.030Z,12.17
2018-10-06T07:15:28.357Z,12.17
2018-10-06T07:17:56.577Z,11.13
2018-10-06T07:20:24.877Z,12.33
2018-10-06T07:22:53.023Z,11.83
2018-10-06T07:25:21.254Z,14.30
2018-10-06T07:27:49.419Z,16.17
2018-10-06T07:30:17.715Z,12.17
2018-10-06T07:32:45.905Z,11.20
2018-10-06T07:35:14.088Z,12.93
2018-10-06T07:37:42.275Z,11.80
2018-10-06T07:40:10.633Z,10.73
2018-10-06T07:42:38.793Z,12.97
2018-10-06T07:45:07.010Z,10.53
2018-10-06T07:47:35.168Z,14.20
2018-10-06T07:50:03.264Z,13.63
2018-10-06T07:52:31.449Z,10.70
2018-10-06T07:54:59.605Z,13.27
2018-10-06T07:57:27.762Z,10.17
2018-10-06T07:59:55.949Z,10.37
2018-10-06T08:02:24.101Z,10.63
2018-10-06T08:04:52.281Z,9.67
2018-10-06T08:07:20.464Z,11.43
2018-10-06T08:09:48.745Z,9.63
2018-10-06T08:12:16.930Z,10.63
2018-10-06T08:14:45.149Z,10.77
2018-10-06T08:17:13.317Z,13.93
2018-10-06T08:19:41.561Z,13.50
2018-10-06T08:22:09.939Z,11.60
2018-10-06T08:24:38.201Z,9.80
2018-10-06T08:27:06.328Z,13.07
2018-10-06T08:29:34.518Z,10.17
2018-10-06T08:32:02.617Z,9.93
2018-10-06T08:34:30.707Z,7.97
2018-10-06T08:36:58.845Z,11.23
2018-10-06T08:39:27.020Z,10.93
2018-10-06T08:41:55.218Z,12.87
2018-10-06T08:44:23.461Z,10.07
2018-10-06T08:46:51.669Z,9.97
2018-10-06T08:49:19.814Z,8.50
2018-10-06T08:51:47.967Z,14.70
2018-10-06T08:54:16.247Z,13.77
2018-10-06T08:56:44.403Z,10.03
2018-10-06T08:59:14.066Z,9.60
2018-10-06T09:01:42.314Z,13.67
2018-10-06T09:04:10.513Z,12.03
2018-10-06T09:06:38.664Z,13.57
2018-10-06T09:09:08.233Z,12.73
2018-10-06T09:11:36.693Z,16.20
2018-10-06T09:14:05.649Z,16.57
2018-10-06T09:16:33.798Z,14.20
2018-10-06T09:19:02.374Z,14.90
2018-10-06T09:21:30.527Z,19.60
2018-10-06T09:23:58.762Z,14.37
2018-10-06T09:26:26.902Z,16.07
2018-10-06T09:28:55.280Z,16.27
2018-10-06T09:31:23.495Z,18.33
2018-10-06T09:33:51.719Z,14.97
2018-10-06T09:36:19.931Z,15.67
2018-10-06T09:38:48.129Z,13.50
2018-10-06T09:41:16.368Z,13.93
2018-10-06T09:43:44.785Z,15.90
2018-10-06T09:46:13.029Z,18.73
2018-10-06T09:48:41.251Z,16.47
2018-10-06T09:51:09.428Z,17.70
2018-10-06T09:53:37.638Z,16.70
2018-10-06T09:56:05.775Z,16.57
2018-10-06T09:58:34.025Z,16.83
2018-10-06T10:01:07.588Z,17.53
2018-10-06T10:03:41.214Z,17.17
2018-10-06T10:06:09.397Z,18.90
2018-10-06T10:08:37.644Z,17.57
2018-10-06T10:11:05.787Z,15.67
2018-10-06T10:13:33.945Z,15.70
2018-10-06T10:16:02.140Z,15.53
2018-10-06T10:18:30.330Z,15.83
2018-10-06T10:20:58.504Z,15.10
2018-10-06T10:23:27.103Z,14.40
2018-10-06T10:25:55.198Z,15.20
2018-10-06T10:28:23.435Z,15.07
2018-10-06T10:30:51.600Z,16.00
2018-10-06T10:33:19.796Z,16.00
2018-10-06T10:35:48.056Z,14.23
2018-10-06T10:38:16.269Z,20.60
2018-10-06T10:40:44.467Z,17.70
2018-10-06T10:43:12.600Z,18.90
2018-10-06T10:45:40.814Z,17.93
2018-10-06T10:48:09.000Z,18.07
2018-10-06T10:50:37.185Z,14.77
2018-10-06T10:53:05.374Z,18.10
2018-10-06T10:55:33.555Z,17.50
2018-10-06T10:58:01.751Z,15.33
2018-10-06T11:00:29.992Z,13.93
2018-10-06T11:02:58.129Z,17.60
2018-10-06T11:05:26.297Z,14.83
2018-10-06T11:07:54.515Z,15.63
2018-10-06T11:10:22.664Z,14.70
2018-10-06T11:12:50.813Z,14.20
2018-10-06T11:15:18.994Z,13.73
2018-10-06T11:17:47.174Z,13.40
2018-10-06T11:20:15.453Z,14.77
2018-10-06T11:22:43.596Z,16.63
2018-10-06T11:25:11.785Z,16.43
2018-10-06T11:27:39.910Z,17.20
2018-10-06T11:30:08.046Z,16.53
2018-10-06T11:32:36.207Z,15.70
2018-10-06T11:35:04.619Z,14.10
2018-10-06T11:37:33.023Z,13.93
2018-10-06T11:40:01.060Z,13.60
2018-10-06T11:42:29.410Z,13.47
2018-10-06T11:44:57.578Z,16.60
2018-10-06T11:47:25.848Z,16.27
2018-10-06T11:49:54.101Z,16.67
2018-10-06T11:52:22.323Z,13.03
2018-10-06T11:54:50.475Z,15.87
2018-10-06T11:57:18.669Z,15.20
2018-10-06T11:59:46.852Z,13.53
2018-10-06T12:02:15.008Z,15.27
2018-10-06T12:04:43.223Z,14.33
2018-10-06T12:07:11.460Z,14.73
2018-10-06T12:09:39.630Z,14.40
2018-10-06T12:12:07.831Z,14.17
2018-10-06T12:14:36.076Z,13.57
2018-10-06T12:17:04.228Z,14.73
2018-10-06T12:19:32.548Z,11.07
2018-10-06T12:22:00.773Z,13.97
2018-10-06T12:24:28.963Z,15.90
2018-10-06T12:26:57.152Z,12.83
2018-10-06T12:29:25.337Z,13.63
2018-10-06T12:31:53.667Z,15.87
2018-10-06T12:34:21.799Z,12.13
2018-10-06T12:36:49.997Z,11.27
2018-10-06T12:39:19.106Z,13.13
2018-10-06T12:41:47.288Z,12.37
2018-10-06T12:44:15.383Z,11.83
2018-10-06T12:46:43.675Z,14.50
2018-10-06T12:49:12.336Z,13.43
2018-10-06T12:51:40.640Z,12.90
2018-10-06T12:54:08.895Z,14.67
2018-10-06T12:56:37.255Z,12.27
2018-10-06T12:59:05.708Z,13.87
2018-10-06T13:01:33.894Z,12.63
2018-10-06T13:04:02.109Z,12.00
2018-10-06T13:06:30.390Z,14.10
2018-10-06T13:08:59.415Z,15.53
2018-10-06T13:11:27.593Z,12.37
2018-10-06T13:13:55.844Z,13.07
2018-10-06T13:16:24.119Z,11.53
2018-10-06T13:18:52.301Z,10.97
2018-10-06T13:21:20.568Z,11.50
2018-10-06T13:23:48.910Z,10.87
2018-10-06T13:26:17.178Z,9.40
2018-10-06T13:28:45.304Z,10.80
2018-10-06T13:31:13.415Z,11.37
2018-10-06T13:33:41.589Z,10.10
2018-10-06T13:36:09.882Z,10.43
2018-10-06T13:38:38.085Z,10.67
2018-10-06T13:41:06.275Z,14.17
2018-10-06T13:43:34.476Z,9.03
2018-10-06T13:46:02.639Z,9.17
2018-10-06T13:48:30.875Z,10.10
2018-10-06T13:50:59.075Z,8.43
2018-10-06T13:53:27.269Z,9.40
2018-10-06T13:55:55.461Z,10.77
2018-10-06T13:58:23.800Z,9.03
2018-10-06T14:00:52.066Z,8.73
2018-10-06T14:03:20.302Z,7.90
2018-10-06T14:05:48.588Z,7.67
2018-10-06T14:08:16.802Z,8.87
2018-10-06T14:10:45.004Z,8.40
2018-10-06T14:13:13.259Z,8.53
2018-10-06T14:15:41.454Z,8.90
2018-10-06T14:18:09.589Z,9.03
2018-10-06T14:20:37.947Z,8.87
2018-10-06T14:23:06.159Z,7.47
2018-10-06T14:25:34.319Z,7.23
2018-10-06T14:28:02.957Z,8.90
2018-10-06T14:30:31.227Z,10.37
2018-10-06T14:32:59.362Z,7.10
2018-10-06T14:35:27.600Z,7.20
2018-10-06T14:37:55.986Z,6.83
2018-10-06T14:40:24.454Z,7.07
2018-10-06T14:42:52.755Z,4.97
2018-10-06T14:45:21.035Z,6.47
2018-10-06T14:47:49.339Z,6.27
2018-10-06T14:50:17.596Z,5.20
2018-10-06T14:52:45.987Z,5.37
2018-10-06T14:55:14.284Z,6.30
2018-10-06T14:57:42.625Z,4.97
2018-10-06T15:00:10.860Z,6.27
2018-10-06T15:02:39.206Z,4.87
2018-10-06T15:05:07.516Z,5.00
2018-10-06T15:07:36.269Z,5.20
2018-10-06T15:10:04.784Z,4.77
2018-10-06T15:12:33.082Z,5.60
2018-10-06T15:15:01.470Z,6.67
2018-10-06T15:17:29.668Z,7.23
2018-10-06T15:19:58.361Z,5.47
2018-10-06T15:22:26.652Z,6.00
2018-10-06T15:24:54.963Z,7.50
2018-10-06T15:27:23.321Z,5.23
2018-10-06T15:29:51.733Z,6.07
2018-10-06T15:32:20.011Z,5.53
2018-10-06T15:34:49.700Z,4.63
2018-10-06T15:37:17.919Z,4.60
2018-10-06T15:39:46.326Z,7.53
2018-10-06T15:42:14.875Z,4.67
2018-10-06T15:44:43.315Z,4.20
2018-10-06T15:47:11.605Z,4.83
2018-10-06T15:49:39.983Z,4.40
2018-10-06T15:52:08.364Z,5.93
2018-10-06T15:54:36.661Z,4.87
2018-10-06T15:57:04.890Z,4.70
2018-10-06T15:59:33.122Z,5.80
2018-10-06T16:02:01.575Z,5.60
2018-10-06T16:04:29.803Z,5.90
2018-10-06T16:06:58.329Z,4.43
2018-10-06T16:09:26.541Z,6.77
2018-10-06T16:11:54.849Z,7.67
2018-10-06T16:14:23.185Z,6.70
2018-10-06T16:16:51.894Z,6.33
2018-10-06T16:19:20.223Z,5.33
2018-10-06T16:21:48.501Z,4.80
2018-10-06T16:24:16.846Z,5.97
2018-10-06T16:26:45.153Z,5.20
2018-10-06T16:29:13.372Z,5.00
2018-10-06T16:31:42.013Z,5.63
2018-10-06T16:34:10.224Z,5.83
2018-10-06T16:36:38.480Z,5.77
2018-10-06T16:39:07.585Z,6.03
2018-10-06T16:41:35.951Z,6.03
2018-10-06T16:44:04.603Z,5.90
2018-10-06T16:46:32.884Z,5.03
2018-10-06T16:49:01.120Z,6.20
2018-10-06T16:51:29.408Z,4.77
2018-10-06T16:53:57.582Z,5.00
2018-10-06T16:56:25.829Z,6.70
2018-10-06T16:58:54.612Z,9.83
2018-10-06T17:01:23.164Z,7.77
2018-10-06T17:03:51.759Z,6.67
2018-10-06T17:06:20.351Z,6.37
2018-10-06T17:08:48.844Z,7.60
2018-10-06T17:11:17.339Z,5.63
2018-10-06T17:13:45.829Z,5.60
2018-10-06T17:16:14.314Z,7.13
2018-10-06T17:18:43.177Z,5.63
2018-10-06T17:21:11.730Z,8.07
2018-10-06T17:23:40.302Z,5.53
2018-10-06T17:26:08.842Z,6.03
2018-10-06T17:28:37.467Z,11.43
2018-10-06T17:31:06.351Z,10.37
2018-10-06T17:33:34.983Z,9.30
2018-10-06T17:36:03.540Z,9.37
2018-10-06T17:38:32.170Z,7.30
2018-10-06T17:41:00.708Z,11.50
2018-10-06T17:43:30.797Z,6.40
2018-10-06T17:45:59.445Z,6.20
2018-10-06T17:48:28.317Z,8.17
2018-10-06T17:50:57.592Z,7.17
2018-10-06T17:53:26.189Z,7.97
2018-10-06T17:55:55.250Z,8.70
2018-10-06T17:58:23.553Z,10.50
2018-10-06T18:00:53.927Z,9.87
2018-10-06T18:03:22.520Z,9.17
2018-10-06T18:05:52.705Z,10.80
2018-10-06T18:08:20.918Z,7.47
2018-10-06T18:10:49.457Z,10.63
2018-10-06T18:13:18.212Z,9.93
2018-10-06T18:15:46.756Z,10.73
2018-10-06T18:18:15.342Z,12.97
2018-10-06T18:20:44.043Z,12.20
2018-10-06T18:23:12.484Z,13.10
2018-10-06T18:25:41.166Z,10.47
2018-10-06T18:28:09.728Z,11.10
2018-10-06T18:30:38.618Z,12.63
2018-10-06T18:33:06.966Z,12.47
2018-10-06T18:35:35.516Z,12.50
2018-10-06T18:38:03.721Z,13.50
2018-10-06T18:40:31.885Z,11.00
2018-10-06T18:43:00.107Z,13.80
2018-10-06T18:45:28.243Z,13.30
2018-10-06T18:47:56.484Z,14.67
2018-10-06T18:50:24.687Z,12.03
2018-10-06T18:52:52.879Z,13.53
2018-10-06T18:55:21.081Z,12.23
2018-10-06T18:57:49.224Z,12.17
2018-10-06T19:00:17.748Z,11.20
2018-10-06T19:02:46.200Z,15.37
2018-10-06T19:05:14.750Z,13.50
2018-10-06T19:07:43.266Z,12.87
2018-10-06T19:10:11.932Z,10.87
2018-10-06T19:12:40.273Z,11.80
2018-10-06T19:15:08.889Z,12.67
2018-10-06T19:17:37.434Z,11.37
2018-10-06T19:20:06.203Z,19.27
2018-10-06T19:22:34.731Z,12.53
2018-10-06T19:25:03.239Z,15.77
2018-10-06T19:27:31.768Z,14.07
2018-10-06T19:30:00.268Z,15.63
2018-10-06T19:32:28.787Z,16.90
2018-10-06T19:34:57.279Z,16.60
2018-10-06T19:37:25.951Z,20.97
2018-10-06T19:39:54.595Z,17.20
2018-10-06T19:42:23.155Z,17.17
2018-10-06T19:44:51.681Z,16.70
2018-10-06T19:47:20.206Z,16.50
2018-10-06T19:49:48.804Z,17.00
2018-10-06T19:52:17.299Z,18.40
2018-10-06T19:54:46.083Z,19.67
2018-10-06T19:57:14.675Z,19.17
2018-10-06T19:59:43.329Z,19.50
2018-10-06T20:02:11.855Z,17.07
2018-10-06T20:04:40.354Z,17.87
2018-10-06T20:07:09.446Z,17.90
2018-10-06T20:09:37.925Z,21.20
2018-10-06T20:12:07.319Z,17.70
2018-10-06T20:14:35.840Z,18.30
2018-10-06T20:17:04.365Z,14.63
2018-10-06T20:19:32.905Z,14.00
2018-10-06T20:22:01.434Z,18.17
2018-10-06T20:24:29.899Z,18.37
2018-10-06T20:26:58.309Z,19.10
2018-10-06T20:29:26.554Z,17.30
2018-10-06T20:31:54.995Z,21.40
2018-10-06T20:37:00.581Z,15.87
2018-10-06T20:39:28.875Z,16.37
2018-10-06T20:41:57.112Z,11.97
2018-10-06T20:44:25.445Z,14.27
2018-10-06T20:46:53.712Z,13.93
2018-10-06T20:49:21.993Z,15.63
2018-10-06T20:51:50.256Z,16.80
2018-10-06T20:54:18.609Z,12.37
2018-10-06T20:56:46.777Z,15.30
2018-10-06T20:59:14.925Z,12.50
2018-10-06T21:01:43.071Z,16.10
2018-10-06T21:04:11.295Z,21.63
2018-10-06T21:06:39.510Z,19.77
2018-10-06T21:09:08.759Z,16.57
2018-10-06T21:11:36.865Z,16.87
2018-10-06T21:14:05.113Z,16.53
2018-10-06T21:16:33.267Z,15.90
2018-10-06T21:19:01.482Z,16.00
2018-10-06T21:21:29.698Z,16.50
2018-10-06T21:23:57.911Z,17.03
2018-10-06T21:26:26.083Z,20.17
2018-10-06T21:28:54.394Z,13.73
2018-10-06T21:31:22.568Z,22.97
2018-10-06T21:33:50.709Z,14.50
2018-10-06T21:36:18.881Z,17.00
2018-10-06T21:38:47.115Z,15.03
2018-10-06T21:41:15.390Z,13.57
2018-10-06T21:43:43.535Z,14.40
2018-10-06T21:46:11.757Z,12.77
2018-10-06T21:48:39.874Z,13.70
2018-10-06T21:51:08.080Z,10.47
2018-10-06T21:53:36.509Z,11.03
2018-10-06T21:56:04.755Z,14.23
2018-10-06T21:58:32.907Z,14.37
2018-10-06T22:01:06.378Z,10.63
2018-10-06T22:03:34.597Z,12.20
2018-10-06T22:06:02.878Z,12.93
2018-10-06T22:08:31.095Z,16.03
2018-10-06T22:10:59.334Z,12.43
2018-10-06T22:13:27.777Z,11.63
2018-10-06T22:15:56.195Z,11.70
2018-10-06T22:18:24.439Z,11.77
2018-10-06T22:20:52.730Z,10.30
2018-10-06T22:23:20.810Z,9.77
2018-10-06T22:25:49.139Z,12.17
2018-10-06T22:28:17.415Z,11.70
2018-10-06T22:30:45.868Z,14.10
2018-10-06T22:33:14.177Z,13.13
2018-10-06T22:35:42.462Z,23.50
2018-10-06T22:38:10.727Z,25.87
2018-10-06T22:40:38.975Z,22.13
2018-10-06T22:43:07.157Z,19.03
2018-10-06T22:45:35.407Z,17.60
2018-10-06T22:48:03.559Z,20.93
2018-10-06T22:50:31.805Z,16.53
2018-10-06T22:53:00.001Z,16.73
2018-10-06T22:55:28.207Z,16.63
2018-10-06T22:57:56.389Z,17.87
2018-10-06T23:00:24.505Z,23.27
2018-10-06T23:02:52.657Z,26.73
2018-10-06T23:05:20.866Z,23.90
2018-10-06T23:07:49.015Z,19.70
2018-10-06T23:10:17.264Z,19.90
2018-10-06T23:12:45.567Z,18.97
2018-10-06T23:15:13.759Z,17.57
2018-10-06T23:17:41.933Z,20.00
2018-10-06T23:20:10.074Z,17.77
2018-10-06T23:22:38.234Z,14.63
2018-10-06T23:25:06.511Z,17.00
2018-10-06T23:27:34.719Z,13.67
2018-10-06T23:30:02.876Z,17.33
2018-10-06T23:32:31.055Z,21.63
2018-10-06T23:34:59.197Z,16.83
2018-10-06T23:37:27.373Z,16.13
2018-10-06T23:39:55.501Z,16.20
2018-10-06T23:42:23.654Z,21.27
2018-10-06T23:44:51.824Z,20.53
2018-10-06T23:47:19.932Z,16.07
2018-10-06T23:49:48.061Z,16.20
2018-10-06T23:52:16.196Z,13.70
2018-10-06T23:54:44.345Z,14.30
2018-10-06T23:57:12.547Z,15.37
2018-10-06T23:59:40.688Z,18.30
